Airfield :
LOGIN :

Register | Disclaimer

   EN    FR    IT 

 










Legend :    VFR   Marginal VFR   IFR   Intensive IFR   Very Intensive IFR
Visi :
Ceiling :
>= 8 km
>= 3000ft
5 to 8 km
1000 to 3000 ft
1500m to 5 km
500 to 1000 ft
800 to 1500m
200 to 500 ft
< 800m
< 200 ft
Symbols :   Thunderstorms  Fog  Heavy snow  Heavy precipitations  Wind > 20 kt
SIGMETs :     Misc.  Thunderstorms  Icing  Turbulence  Mountain Waves  Volcanic Ashes






- Airport Elevation : 396 ft


LFOZ - Orléans St Denis

CURRENT METAR :
  • 230800Z AUTO 23010KT 9999 OVC012 20/17 Q1021

EXPIRED METARs :
  • 230730Z AUTO 23011KT 9999 OVC011 20/17 Q1021
  • 230700Z AUTO 23010KT 9999 OVC011 19/17 Q1021
  • 230630Z AUTO 23010KT 9999 OVC012 19/17 Q1021
  • 230600Z AUTO 23009KT 9999 OVC011 19/17 Q1021
  • 230530Z AUTO 23009KT 9999 OVC012 19/17 Q1021
  • 230500Z AUTO 23009KT 9999 BKN012 OVC050 19/17 Q1021
  • 230430Z AUTO 23009KT 9999 OVC012 19/16 Q1021
  • 230400Z AUTO 23007KT 9999 OVC013 19/17 Q1021
  • 230330Z AUTO 23007KT 9999 OVC015 18/17 Q1021

TAF N/A



MET'MAP, your aeronautical weather chart ! - Copyright ORBIFLY December 2007 - Disclaimer

ORBIFLY MET'MAP TEAM :

Programming & Development : Alexandra Zaïnal
Original concept : Baudouin d'Aumeries
Technical & hardware support : Manuel Goepfert
Assistance : Marc-Olivier Méhu




SOURCES & CREDITS :

   NOAA